Time;durP1;ratioP1;P1;durP2;ratioP2;P2;SDS_P1;SDS_P2;PMS_P1;PMS_P2;Temp;Humidity;BMP_temperature;BMP_pressure;BME280_temperature;BME280_humidity;BME280_pressure;Samples;Min_cycle;Max_cycle;Signal;HPM_P1;HPM_P2
2024/03/27 00:02:17;;;;;;;3.35;0.80;;;6.70;99.90;;;;;;6222977;28;20054;-93
2024/03/27 00:05:18;;;;;;;4.13;0.73;;;6.70;99.90;;;;;;6181821;28;20055;-93
2024/03/27 00:08:18;;;;;;;3.13;0.85;;;6.70;99.90;;;;;;6218166;28;20054;-93
2024/03/27 00:11:24;;;;;;;5.65;0.93;;;6.60;99.90;;;;;;6190754;28;20046;-93
2024/03/27 00:14:25;;;;;;;1.85;0.80;;;6.70;99.90;;;;;;6193938;28;20058;-94
2024/03/27 00:17:26;;;;;;;2.22;0.80;;;6.70;99.90;;;;;;6191306;28;20386;-92
2024/03/27 00:20:27;;;;;;;1.80;0.70;;;6.60;99.90;;;;;;6213785;28;20053;-92
2024/03/27 00:23:27;;;;;;;3.00;1.00;;;6.60;99.90;;;;;;6190249;28;20137;-92
2024/03/27 00:26:28;;;;;;;2.10;0.70;;;6.50;99.90;;;;;;6196625;28;20148;-93
2024/03/27 00:29:30;;;;;;;1.83;0.77;;;6.40;99.90;;;;;;6175577;28;20065;-93
2024/03/27 00:32:32;;;;;;;1.95;0.80;;;6.30;99.90;;;;;;6201926;28;20057;-92
2024/03/27 00:35:33;;;;;;;2.30;0.85;;;6.20;99.90;;;;;;6198290;28;20072;-93
2024/03/27 00:38:35;;;;;;;2.30;1.00;;;6.10;99.90;;;;;;6202582;28;20490;-93
2024/03/27 00:41:36;;;;;;;2.42;0.82;;;6.10;99.90;;;;;;6201265;28;20057;-93
2024/03/27 00:44:37;;;;;;;2.38;0.70;;;6.00;99.90;;;;;;6201531;28;20054;-92
2024/03/27 00:47:38;;;;;;;2.75;0.80;;;6.00;99.90;;;;;;6199971;28;20050;-92
2024/03/27 00:50:39;;;;;;;2.65;0.90;;;5.90;99.90;;;;;;6210698;28;20057;-93
2024/03/27 00:53:40;;;;;;;2.28;0.90;;;6.00;99.90;;;;;;6246266;28;20097;-92
2024/03/27 00:56:42;;;;;;;2.28;0.80;;;5.80;99.90;;;;;;6197522;28;20046;-92
2024/03/27 00:59:43;;;;;;;2.78;0.80;;;5.80;99.90;;;;;;6173148;28;20058;-93
2024/03/27 01:02:43;;;;;;;2.47;0.80;;;5.70;99.90;;;;;;6216259;28;20100;-93
2024/03/27 01:05:44;;;;;;;3.58;1.00;;;5.70;99.90;;;;;;6203028;28;20093;-93
2024/03/27 01:08:45;;;;;;;2.95;0.90;;;5.70;99.90;;;;;;6220913;28;20508;-93
2024/03/27 01:11:46;;;;;;;5.60;1.00;;;5.60;99.90;;;;;;6192263;28;20054;-94
2024/03/27 01:14:47;;;;;;;2.85;1.15;;;5.60;99.90;;;;;;6202434;28;20053;-94
2024/03/27 01:17:48;;;;;;;2.65;1.20;;;5.60;99.90;;;;;;6197538;28;20053;-94
2024/03/27 01:20:49;;;;;;;2.72;1.10;;;5.60;99.90;;;;;;6199002;28;20072;-93
2024/03/27 01:23:50;;;;;;;3.28;1.10;;;5.60;99.90;;;;;;6199868;28;20049;-94
2024/03/27 01:26:51;;;;;;;2.85;1.30;;;5.60;99.90;;;;;;6203994;28;20110;-94
2024/03/27 01:29:51;;;;;;;4.07;1.38;;;5.50;99.90;;;;;;6191374;28;20136;-95
2024/03/27 01:32:52;;;;;;;3.00;1.50;;;5.60;99.90;;;;;;6220559;28;20136;-95
2024/03/27 01:35:53;;;;;;;4.07;2.08;;;5.50;99.90;;;;;;6200872;28;20489;-94
2024/03/27 01:38:54;;;;;;;4.55;2.00;;;5.50;99.90;;;;;;6202952;28;20097;-94
2024/03/27 01:41:55;;;;;;;8.93;2.33;;;5.50;99.90;;;;;;6177643;28;20054;-93
2024/03/27 01:44:56;;;;;;;6.25;2.20;;;5.50;99.90;;;;;;6186284;28;20101;-95
2024/03/27 01:47:57;;;;;;;4.47;2.35;;;5.50;99.90;;;;;;6183084;28;20432;-94
2024/03/27 01:50:58;;;;;;;4.18;2.40;;;5.50;99.90;;;;;;6205083;28;20141;-93
2024/03/27 01:53:59;;;;;;;6.38;2.40;;;5.50;99.90;;;;;;6218243;28;20053;-93
2024/03/27 01:57:00;;;;;;;5.22;2.35;;;5.50;99.90;;;;;;6233601;28;20054;-94
2024/03/27 02:00:08;;;;;;;7.68;3.20;;;5.50;99.90;;;;;;6222649;28;20049;-94
2024/03/27 02:03:10;;;;;;;5.43;3.17;;;5.60;99.90;;;;;;6216258;28;20113;-93
2024/03/27 02:06:11;;;;;;;6.22;3.03;;;5.60;99.90;;;;;;6211780;28;20053;-93
2024/03/27 02:09:12;;;;;;;8.88;2.78;;;5.60;99.90;;;;;;6214439;28;20057;-93
2024/03/27 02:12:14;;;;;;;4.65;2.70;;;5.60;99.90;;;;;;6218262;28;20113;-93
2024/03/27 02:15:15;;;;;;;5.03;2.60;;;5.70;99.90;;;;;;6195831;28;20034;-93
2024/03/27 02:18:20;;;;;;;6.75;2.78;;;5.70;99.90;;;;;;6219008;28;20113;-93
2024/03/27 02:21:21;;;;;;;4.32;2.50;;;5.70;99.90;;;;;;6219408;28;20117;-92
2024/03/27 02:24:22;;;;;;;5.35;2.60;;;5.70;99.90;;;;;;6232227;28;20133;-94
2024/03/27 02:27:22;;;;;;;4.22;1.90;;;5.70;99.90;;;;;;6210069;28;20093;-95
2024/03/27 02:30:23;;;;;;;6.07;2.17;;;5.70;99.90;;;;;;6168870;28;20089;-93
2024/03/27 02:33:24;;;;;;;3.75;1.85;;;5.70;99.90;;;;;;6206117;28;20054;-94
2024/03/27 02:36:25;;;;;;;3.70;1.90;;;5.70;99.90;;;;;;6194698;28;20042;-93
2024/03/27 02:39:26;;;;;;;4.03;1.90;;;5.70;99.90;;;;;;6220371;28;20029;-93
2024/03/27 02:42:27;;;;;;;3.75;1.88;;;5.60;99.90;;;;;;6219102;28;20050;-95
2024/03/27 02:45:28;;;;;;;7.72;2.45;;;5.60;99.90;;;;;;6225026;28;20062;-92
2024/03/27 02:48:29;;;;;;;5.15;2.42;;;5.50;99.90;;;;;;6203681;28;20050;-94
2024/03/27 02:51:29;;;;;;;5.72;2.50;;;5.50;99.90;;;;;;6206295;28;20049;-94
2024/03/27 02:54:30;;;;;;;5.72;2.35;;;5.50;99.90;;;;;;6203064;28;20104;-92
2024/03/27 02:57:31;;;;;;;7.03;2.00;;;5.40;99.90;;;;;;6195481;28;20046;-92
2024/03/27 03:00:32;;;;;;;4.20;1.55;;;5.50;99.90;;;;;;6180493;28;20105;-92
2024/03/27 03:03:33;;;;;;;4.57;2.10;;;5.50;99.90;;;;;;6214070;28;20081;-92
2024/03/27 03:06:36;;;;;;;5.22;1.95;;;5.40;99.90;;;;;;6193765;28;20114;-93
2024/03/27 03:09:37;;;;;;;4.30;1.40;;;5.40;99.90;;;;;;6216582;28;20061;-94
2024/03/27 03:12:38;;;;;;;4.22;1.50;;;5.40;99.90;;;;;;6197306;28;20064;-94
2024/03/27 03:15:39;;;;;;;4.68;1.85;;;5.50;99.90;;;;;;6214664;28;20452;-92
2024/03/27 03:18:39;;;;;;;5.20;1.75;;;5.60;99.90;;;;;;6183456;28;20061;-93
2024/03/27 03:21:40;;;;;;;4.97;1.90;;;5.60;99.90;;;;;;6203104;28;20054;-91
2024/03/27 03:24:41;;;;;;;5.15;1.70;;;5.70;99.90;;;;;;6178621;28;20054;-90
2024/03/27 03:27:42;;;;;;;4.75;1.60;;;5.70;99.90;;;;;;6217211;28;20046;-92
2024/03/27 03:30:43;;;;;;;4.50;1.60;;;5.80;99.90;;;;;;6172182;28;20089;-91
2024/03/27 03:33:47;;;;;;;5.18;1.58;;;5.90;99.90;;;;;;6207743;28;20060;-92
2024/03/27 03:36:48;;;;;;;5.05;1.50;;;5.90;99.90;;;;;;6178766;28;20050;-92
2024/03/27 03:39:49;;;;;;;3.92;1.52;;;5.90;99.90;;;;;;6205194;28;20060;-92
2024/03/27 03:42:49;;;;;;;3.88;1.75;;;6.00;99.90;;;;;;6180053;28;20398;-91
2024/03/27 03:45:50;;;;;;;6.70;1.50;;;6.00;99.90;;;;;;6174514;28;20074;-94
2024/03/27 03:48:51;;;;;;;5.60;1.60;;;6.00;99.90;;;;;;6204121;28;20109;-92
2024/03/27 03:51:51;;;;;;;5.55;1.50;;;6.10;99.90;;;;;;6181957;28;20054;-92
2024/03/27 03:54:52;;;;;;;3.40;1.50;;;6.00;99.90;;;;;;6213772;28;20089;-92
2024/03/27 03:57:53;;;;;;;6.18;1.52;;;6.00;99.90;;;;;;6174146;28;20086;-91
2024/03/27 04:00:54;;;;;;;6.60;1.60;;;6.00;99.90;;;;;;6189666;28;20141;-95
2024/03/27 04:03:55;;;;;;;3.97;1.40;;;6.10;99.90;;;;;;6174558;28;20053;-93
2024/03/27 04:06:56;;;;;;;6.82;1.42;;;6.20;99.90;;;;;;6224717;28;20093;-93
2024/03/27 04:09:57;;;;;;;5.18;1.63;;;6.20;99.90;;;;;;6200266;28;20054;-94
2024/03/27 04:12:58;;;;;;;6.78;2.10;;;6.20;99.90;;;;;;6203144;28;20448;-93
2024/03/27 04:15:59;;;;;;;3.85;1.85;;;6.30;99.90;;;;;;6189910;28;20053;-93
2024/03/27 04:19:00;;;;;;;6.80;1.70;;;6.40;99.90;;;;;;6190606;28;20058;-92
2024/03/27 04:22:01;;;;;;;5.25;1.30;;;6.40;99.90;;;;;;6214672;28;20148;-93
2024/03/27 04:25:03;;;;;;;5.53;1.40;;;6.50;99.90;;;;;;6214916;28;20045;-93
2024/03/27 04:28:04;;;;;;;7.45;1.50;;;6.50;99.90;;;;;;6191158;28;20065;-92
2024/03/27 04:31:09;;;;;;;5.20;1.33;;;6.50;99.90;;;;;;6184875;28;20050;-93
2024/03/27 04:34:10;;;;;;;7.20;1.40;;;6.40;99.90;;;;;;6172060;28;20060;-94
2024/03/27 04:37:11;;;;;;;7.93;1.38;;;6.50;99.90;;;;;;6188973;28;20061;-93
2024/03/27 04:40:11;;;;;;;4.35;1.42;;;6.40;99.90;;;;;;6213700;28;20050;-93
2024/03/27 04:43:13;;;;;;;3.33;1.23;;;6.40;99.90;;;;;;6192561;28;20149;-94
2024/03/27 04:46:14;;;;;;;6.40;1.50;;;6.30;99.90;;;;;;6195676;28;20057;-93
2024/03/27 04:49:15;;;;;;;10.30;1.80;;;6.20;99.90;;;;;;6197638;28;20064;-93
2024/03/27 04:52:16;;;;;;;5.15;1.70;;;6.30;99.90;;;;;;6213720;28;20128;-91
2024/03/27 04:55:17;;;;;;;6.25;1.58;;;6.20;99.90;;;;;;6172091;28;20120;-94
2024/03/27 04:58:18;;;;;;;6.75;1.60;;;6.20;99.90;;;;;;6197073;28;20534;-92
2024/03/27 05:01:18;;;;;;;9.07;1.85;;;6.20;99.90;;;;;;6169883;28;20058;-93
2024/03/27 05:04:19;;;;;;;6.05;1.60;;;6.20;99.90;;;;;;6171375;28;20058;-92
2024/03/27 05:07:20;;;;;;;7.70;1.52;;;6.10;99.90;;;;;;6187273;28;20073;-93
2024/03/27 05:10:21;;;;;;;6.25;1.67;;;6.00;99.90;;;;;;6214106;28;20474;-94
2024/03/27 05:13:21;;;;;;;8.40;1.80;;;6.00;99.90;;;;;;6213035;28;20058;-93
2024/03/27 05:16:22;;;;;;;5.72;1.40;;;5.90;99.90;;;;;;6189014;28;20129;-94
2024/03/27 05:19:23;;;;;;;6.45;1.33;;;5.80;99.90;;;;;;6196881;28;20066;-93
2024/03/27 05:22:27;;;;;;;5.70;1.35;;;5.80;99.90;;;;;;6192356;28;20058;-94
2024/03/27 05:25:28;;;;;;;5.57;1.20;;;5.70;99.90;;;;;;6196970;28;20050;-93
2024/03/27 05:28:29;;;;;;;7.95;1.60;;;5.70;99.90;;;;;;6194005;28;20096;-93
2024/03/27 05:31:30;;;;;;;7.93;1.60;;;5.70;99.90;;;;;;6201301;28;20054;-92
2024/03/27 05:34:31;;;;;;;6.25;1.40;;;5.70;99.90;;;;;;6194561;28;20437;-95
2024/03/27 05:37:33;;;;;;;7.30;1.42;;;5.60;99.90;;;;;;6216322;28;20089;-93
2024/03/27 05:40:33;;;;;;;4.13;1.02;;;5.50;99.90;;;;;;6191494;28;20054;-92
2024/03/27 05:43:35;;;;;;;8.10;1.35;;;5.50;99.90;;;;;;6189774;28;20173;-92
2024/03/27 05:46:36;;;;;;;6.60;1.35;;;5.50;99.90;;;;;;6174240;28;20062;-91
2024/03/27 05:49:36;;;;;;;7.50;1.30;;;5.40;99.90;;;;;;6214632;28;20060;-92
2024/03/27 05:52:37;;;;;;;3.97;1.10;;;5.40;99.90;;;;;;6175458;28;20046;-92
2024/03/27 05:55:38;;;;;;;5.88;1.30;;;5.30;99.90;;;;;;6195996;28;20108;-93
2024/03/27 05:58:38;;;;;;;6.15;1.65;;;5.40;99.90;;;;;;6189702;28;20053;-93
2024/03/27 06:01:39;;;;;;;10.98;1.40;;;5.30;99.90;;;;;;6224405;28;20089;-94
2024/03/27 06:04:40;;;;;;;7.90;1.73;;;5.30;99.90;;;;;;6206004;28;20402;-94
2024/03/27 06:07:41;;;;;;;12.00;1.70;;;5.30;99.90;;;;;;6205198;28;20054;-93
2024/03/27 06:10:47;;;;;;;8.07;1.58;;;5.40;99.90;;;;;;6193762;28;20220;-94
2024/03/27 06:13:49;;;;;;;6.40;1.52;;;5.40;99.90;;;;;;6178364;28;20050;-92
2024/03/27 06:16:50;;;;;;;8.05;1.80;;;5.40;99.90;;;;;;6217350;28;20050;-92
2024/03/27 06:19:50;;;;;;;6.35;1.58;;;5.40;99.90;;;;;;6198330;28;20064;-91
2024/03/27 06:22:51;;;;;;;14.48;1.98;;;5.50;99.90;;;;;;6214668;28;20057;-93
2024/03/27 06:25:52;;;;;;;9.75;1.55;;;5.50;99.90;;;;;;6206517;28;20050;-94
2024/03/27 06:28:53;;;;;;;9.27;1.80;;;5.60;99.90;;;;;;6217269;28;20061;-95
2024/03/27 06:31:54;;;;;;;13.38;2.00;;;5.80;99.90;;;;;;6180107;28;20104;-94
2024/03/27 06:34:55;;;;;;;6.35;1.70;;;5.90;99.90;;;;;;6198744;28;20545;-92
2024/03/27 06:37:56;;;;;;;5.93;1.50;;;5.90;99.90;;;;;;6189876;28;20057;-90
2024/03/27 06:40:57;;;;;;;8.85;1.95;;;6.00;99.90;;;;;;6194668;28;20474;-92
2024/03/27 06:43:58;;;;;;;9.23;1.77;;;6.00;99.90;;;;;;6181851;28;20057;-92
2024/03/27 06:46:59;;;;;;;8.60;1.70;;;6.40;99.90;;;;;;6196699;28;20561;-92
2024/03/27 06:49:59;;;;;;;7.50;1.60;;;7.00;99.90;;;;;;6189795;28;20058;-92
2024/03/27 06:53:00;;;;;;;6.63;1.80;;;7.20;99.90;;;;;;6212626;28;20058;-92
2024/03/27 06:56:01;;;;;;;10.13;1.60;;;7.70;99.90;;;;;;6173784;28;20062;-92
2024/03/27 06:59:02;;;;;;;6.47;1.20;;;8.70;99.90;;;;;;6176914;28;20129;-93
2024/03/27 07:02:03;;;;;;;4.85;1.10;;;9.30;99.90;;;;;;6197079;28;20054;-93
2024/03/27 07:05:03;;;;;;;11.05;2.28;;;9.90;99.90;;;;;;6176366;28;20070;-91
2024/03/27 07:08:04;;;;;;;12.13;1.95;;;10.20;99.90;;;;;;6215005;28;20050;-90
2024/03/27 07:11:05;;;;;;;6.30;1.10;;;10.00;94.90;;;;;;6174984;28;20054;-93
2024/03/27 07:14:05;;;;;;;3.80;1.02;;;10.10;99.90;;;;;;6186702;28;20094;-93
2024/03/27 07:17:06;;;;;;;10.43;1.70;;;10.20;94.50;;;;;;6203181;28;20112;-92
2024/03/27 07:20:08;;;;;;;6.28;1.60;;;10.60;98.10;;;;;;6194720;28;20086;-91
2024/03/27 07:23:10;;;;;;;9.02;1.40;;;11.20;98.90;;;;;;6224069;28;20030;-91
2024/03/27 07:26:11;;;;;;;8.30;1.48;;;11.90;87.10;;;;;;6212095;28;20085;-91
2024/03/27 07:29:12;;;;;;;5.90;1.38;;;12.60;92.20;;;;;;6199626;28;20045;-93
2024/03/27 07:32:12;;;;;;;6.55;1.10;;;12.40;43.30;;;;;;6235750;28;20038;-93
2024/03/27 07:35:13;;;;;;;6.18;1.40;;;12.60;81.50;;;;;;6212376;28;20046;-92
2024/03/27 07:38:14;;;;;;;6.05;1.00;;;12.60;69.40;;;;;;6217224;28;20054;-93
2024/03/27 07:41:15;;;;;;;7.80;1.42;;;12.70;16.00;;;;;;6204370;28;20060;-92
2024/03/27 07:44:16;;;;;;;6.97;1.35;;;12.50;22.30;;;;;;6206920;28;20050;-92
2024/03/27 07:47:17;;;;;;;6.50;1.30;;;12.60;19.10;;;;;;6200640;28;20058;-92
2024/03/27 07:50:18;;;;;;;6.72;1.27;;;12.40;12.00;;;;;;6193304;28;20061;-92
2024/03/27 07:53:19;;;;;;;4.88;1.45;;;12.40;28.40;;;;;;6214500;28;20153;-94
2024/03/27 07:56:20;;;;;;;8.13;1.50;;;12.50;9.90;;;;;;6174130;28;20060;-92
2024/03/27 07:59:21;;;;;;;7.20;1.60;;;12.80;40.10;;;;;;6190217;28;20058;-92
2024/03/27 08:02:22;;;;;;;5.32;1.30;;;12.80;1.00;;;;;;6216835;28;20064;-90
2024/03/27 08:05:23;;;;;;;6.85;1.42;;;12.70;1.00;;;;;;6171065;28;20050;-89
2024/03/27 08:08:24;;;;;;;6.10;1.00;;;12.90;1.00;;;;;;6193404;28;20119;-91
2024/03/27 08:11:25;;;;;;;4.90;1.25;;;12.70;1.00;;;;;;6186682;28;20081;-90
2024/03/27 08:14:26;;;;;;;7.22;1.25;;;12.50;1.00;;;;;;6180950;28;20419;-91
2024/03/27 08:17:27;;;;;;;5.40;1.02;;;12.50;1.90;;;;;;6210322;28;20085;-91
2024/03/27 08:20:28;;;;;;;6.35;1.45;;;12.10;1.00;;;;;;6171751;28;20080;-92
2024/03/27 08:23:29;;;;;;;4.22;0.95;;;12.10;3.30;;;;;;6209034;28;20042;-88
2024/03/27 08:26:30;;;;;;;4.50;1.00;;;11.60;1.00;;;;;;6170452;28;20466;-89
2024/03/27 08:29:31;;;;;;;4.65;1.20;;;11.60;1.00;;;;;;6191389;28;20108;-87
2024/03/27 08:32:32;;;;;;;6.88;1.50;;;11.60;14.40;;;;;;6169987;28;20138;-86
2024/03/27 08:35:33;;;;;;;5.97;1.50;;;11.50;20.50;;;;;;6188479;28;20187;-91
2024/03/27 08:38:34;;;;;;;5.32;1.50;;;11.90;27.60;;;;;;6187828;28;20058;-88
2024/03/27 08:41:35;;;;;;;9.88;1.58;;;12.10;1.00;;;;;;6184376;28;20054;-89
2024/03/27 08:44:36;;;;;;;6.65;1.50;;;11.60;1.00;;;;;;6183230;28;20077;-82
2024/03/27 08:47:37;;;;;;;4.82;1.30;;;11.20;1.00;;;;;;6196169;28;20136;-90
2024/03/27 08:50:37;;;;;;;5.07;1.20;;;11.30;13.60;;;;;;6211680;28;20108;-92
2024/03/27 08:53:38;;;;;;;6.88;1.38;;;11.40;1.00;;;;;;6184889;28;20072;-88
2024/03/27 08:56:39;;;;;;;6.50;1.42;;;11.70;1.00;;;;;;6207626;28;20089;-89
2024/03/27 08:59:40;;;;;;;9.48;1.98;;;11.90;1.00;;;;;;6187165;28;20054;-90
2024/03/27 09:02:41;;;;;;;4.57;1.10;;;12.60;1.00;;;;;;6192726;28;20054;-88
2024/03/27 09:05:42;;;;;;;3.67;1.10;;;13.90;1.00;;;;;;6192353;28;20049;-90
2024/03/27 09:08:42;;;;;;;10.45;1.38;;;14.10;1.00;;;;;;6192330;28;20053;-86
2024/03/27 09:11:43;;;;;;;4.30;1.20;;;14.70;1.00;;;;;;6207951;28;20053;-90
2024/03/27 09:14:44;;;;;;;6.15;1.10;;;14.60;1.00;;;;;;6179496;28;20046;-90
2024/03/27 09:17:44;;;;;;;2.92;1.10;;;14.10;1.00;;;;;;6209249;28;20054;-91
2024/03/27 09:20:45;;;;;;;6.28;0.90;;;14.40;1.00;;;;;;6169442;28;20066;-91
2024/03/27 09:23:46;;;;;;;6.00;1.10;;;13.90;1.00;;;;;;6190403;28;20089;-86
2024/03/27 09:26:47;;;;;;;5.90;1.10;;;14.10;1.00;;;;;;6207031;28;20097;-85
2024/03/27 09:29:48;;;;;;;3.78;1.20;;;13.50;1.00;;;;;;6193627;28;20413;-89
2024/03/27 09:32:48;;;;;;;3.83;1.08;;;13.20;1.00;;;;;;6212016;28;20085;-88
2024/03/27 09:35:49;;;;;;;5.22;1.25;;;12.90;1.00;;;;;;6184194;28;20605;-82
2024/03/27 09:38:50;;;;;;;3.22;1.05;;;12.60;1.00;;;;;;6167518;28;20059;-89
2024/03/27 09:41:51;;;;;;;3.78;1.10;;;13.00;1.00;;;;;;6186652;28;20105;-92
2024/03/27 09:44:52;;;;;;;4.80;1.10;;;13.90;1.00;;;;;;6195919;28;20069;-89
2024/03/27 09:47:53;;;;;;;6.13;1.05;;;14.70;1.00;;;;;;6167083;28;20197;-84
2024/03/27 09:50:54;;;;;;;5.47;1.10;;;15.00;1.00;;;;;;6206705;28;20486;-85
2024/03/27 09:53:55;;;;;;;3.30;0.77;;;14.90;1.00;;;;;;6167056;28;20096;-84
2024/03/27 09:56:55;;;;;;;5.32;1.02;;;14.10;1.00;;;;;;6206461;28;20058;-85
2024/03/27 09:59:58;;;;;;;3.63;0.88;;;14.50;1.00;;;;;;6177605;28;20533;-84
2024/03/27 10:02:58;;;;;;;3.15;0.95;;;15.40;1.00;;;;;;6189957;28;20054;-86
2024/03/27 10:05:59;;;;;;;5.05;1.08;;;16.40;1.00;;;;;;6169475;28;20164;-88
2024/03/27 10:09:00;;;;;;;5.10;1.08;;;17.00;1.00;;;;;;6195486;28;20065;-90
2024/03/27 10:12:13;;;;;;;4.60;0.90;;;16.60;1.00;;;;;;6196959;28;20114;-92
2024/03/27 10:15:14;;;;;;;5.47;0.90;;;16.30;1.00;;;;;;6213248;28;20049;-90
2024/03/27 10:18:15;;;;;;;3.88;0.93;;;14.80;1.00;;;;;;6192188;28;20050;-84
2024/03/27 10:21:16;;;;;;;6.85;0.90;;;14.40;1.00;;;;;;6216431;28;20073;-86
2024/03/27 10:24:17;;;;;;;4.22;1.02;;;14.60;1.00;;;;;;6190530;28;20082;-86
2024/03/27 10:27:18;;;;;;;4.22;0.90;;;16.00;1.00;;;;;;6187910;28;20156;-88
2024/03/27 10:30:18;;;;;;;3.40;0.95;;;15.90;1.00;;;;;;6181583;28;20054;-85
2024/03/27 10:33:19;;;;;;;3.88;0.88;;;15.50;1.00;;;;;;6186205;28;20058;-85
2024/03/27 10:36:20;;;;;;;3.17;0.90;;;16.00;1.00;;;;;;6210454;28;20516;-84
2024/03/27 10:39:21;;;;;;;5.20;1.38;;;16.10;1.00;;;;;;6195344;28;20089;-86
2024/03/27 10:42:22;;;;;;;4.43;1.35;;;16.00;1.00;;;;;;6170376;28;20054;-87
2024/03/27 10:45:23;;;;;;;2.30;0.80;;;15.00;1.00;;;;;;6198104;28;20074;-88
2024/03/27 10:48:23;;;;;;;3.25;0.90;;;14.80;1.00;;;;;;6180702;28;20098;-88
2024/03/27 10:51:24;;;;;;;3.80;0.90;;;15.60;1.00;;;;;;6179412;28;20541;-89
2024/03/27 10:54:25;;;;;;;6.05;1.20;;;14.60;1.00;;;;;;6179633;28;20112;-86
2024/03/27 10:57:26;;;;;;;5.00;1.20;;;14.50;1.00;;;;;;6196396;28;20058;-90
2024/03/27 11:00:27;;;;;;;4.80;1.10;;;14.70;1.00;;;;;;6174003;28;20098;-88
2024/03/27 11:03:28;;;;;;;6.80;1.67;;;15.00;1.00;;;;;;6179187;28;20502;-88
2024/03/27 11:06:29;;;;;;;5.35;1.10;;;15.40;1.00;;;;;;6163842;28;20066;-87
2024/03/27 11:09:30;;;;;;;5.75;1.23;;;16.00;1.00;;;;;;6178749;28;20092;-88
2024/03/27 11:12:31;;;;;;;5.53;1.10;;;15.20;1.00;;;;;;6194873;28;20069;-87
2024/03/27 11:15:32;;;;;;;4.13;0.90;;;14.90;1.00;;;;;;6188979;28;20136;-86
2024/03/27 11:18:33;;;;;;;4.45;1.13;;;13.80;1.00;;;;;;6162517;28;20065;-89
2024/03/27 11:21:33;;;;;;;5.45;1.20;;;13.40;1.00;;;;;;6177889;28;20130;-88
2024/03/27 11:24:34;;;;;;;6.07;1.30;;;13.60;1.00;;;;;;6203373;28;20085;-89
2024/03/27 11:27:35;;;;;;;4.75;1.10;;;13.60;1.00;;;;;;6205558;28;20058;-90
2024/03/27 11:30:35;;;;;;;5.25;1.20;;;13.70;1.00;;;;;;6149281;28;20510;-88
2024/03/27 11:33:36;;;;;;;5.32;1.20;;;14.40;1.00;;;;;;6162909;28;20062;-89
2024/03/27 11:36:37;;;;;;;5.75;1.30;;;14.40;1.00;;;;;;6162294;28;20082;-90
2024/03/27 11:39:37;;;;;;;5.45;1.20;;;14.40;1.00;;;;;;6162149;28;20051;-87
2024/03/27 11:42:38;;;;;;;4.68;1.48;;;14.60;1.00;;;;;;6178754;28;20054;-88
2024/03/27 11:45:39;;;;;;;6.47;1.10;;;14.20;1.00;;;;;;6155528;28;20133;-84
2024/03/27 11:48:39;;;;;;;6.75;1.30;;;13.40;1.00;;;;;;6202173;28;20062;-85
2024/03/27 11:51:40;;;;;;;5.18;1.20;;;13.20;1.00;;;;;;6192345;28;20064;-86
2024/03/27 11:54:41;;;;;;;5.88;1.40;;;13.10;1.00;;;;;;6177472;28;20054;-87
2024/03/27 11:57:42;;;;;;;7.03;1.30;;;14.70;1.00;;;;;;6202971;28;20054;-94
2024/03/27 12:00:42;;;;;;;5.15;1.17;;;14.10;1.00;;;;;;6185917;28;20046;-93
2024/03/27 12:03:43;;;;;;;6.00;1.17;;;13.90;1.00;;;;;;6206195;28;20042;-92
2024/03/27 12:06:44;;;;;;;7.72;1.50;;;13.40;1.00;;;;;;6163377;28;20526;-90
2024/03/27 12:09:45;;;;;;;4.88;1.10;;;13.30;1.00;;;;;;6185352;28;20058;-90
2024/03/27 12:12:46;;;;;;;5.78;1.20;;;13.50;1.00;;;;;;6202877;28;20054;-89
2024/03/27 12:15:47;;;;;;;8.30;1.30;;;13.60;1.00;;;;;;6161921;28;20093;-91
2024/03/27 12:18:48;;;;;;;6.95;1.42;;;13.50;1.00;;;;;;6202668;28;20534;-91
2024/03/27 12:21:48;;;;;;;6.25;1.17;;;13.30;1.00;;;;;;6164699;28;20057;-89
2024/03/27 12:24:50;;;;;;;7.57;1.15;;;12.90;1.00;;;;;;6200999;28;20090;-90
2024/03/27 12:27:51;;;;;;;5.05;1.10;;;12.60;1.00;;;;;;6162433;28;20065;-89
2024/03/27 12:30:52;;;;;;;7.20;1.40;;;12.30;1.00;;;;;;6177756;28;20502;-92
2024/03/27 12:33:53;;;;;;;8.63;1.30;;;12.10;1.00;;;;;;6177790;28;20172;-94
2024/03/27 12:36:57;;;;;;;7.47;1.27;;;11.90;10.10;;;;;;6202104;28;20113;-91
2024/03/27 12:39:58;;;;;;;4.78;1.20;;;11.20;37.60;;;;;;6186821;28;20050;-92
2024/03/27 12:42:59;;;;;;;6.50;1.30;;;11.00;64.00;;;;;;6185737;28;20064;-88
2024/03/27 12:46:00;;;;;;;6.72;1.30;;;11.00;77.90;;;;;;6151688;28;20082;-91
2024/03/27 12:49:00;;;;;;;5.32;1.10;;;11.00;86.90;;;;;;6186104;28;20061;-90
2024/03/27 12:52:01;;;;;;;6.78;1.20;;;10.60;77.70;;;;;;6180125;28;20095;-92
2024/03/27 12:55:03;;;;;;;6.18;1.52;;;10.40;92.40;;;;;;6194494;28;20371;-93
2024/03/27 12:58:04;;;;;;;5.20;1.02;;;10.40;95.50;;;;;;6165561;28;20482;-92
2024/03/27 13:01:04;;;;;;;7.32;1.40;;;10.00;96.20;;;;;;6201462;28;20089;-90
2024/03/27 13:04:05;;;;;;;4.88;1.30;;;9.90;99.90;;;;;;6206888;28;20093;-93
2024/03/27 13:07:06;;;;;;;9.27;1.40;;;9.80;99.90;;;;;;6217734;28;20109;-91
2024/03/27 13:10:07;;;;;;;9.50;1.50;;;9.70;99.90;;;;;;6203799;28;20094;-93
2024/03/27 13:13:08;;;;;;;5.78;1.10;;;9.60;99.90;;;;;;6184411;28;20081;-93
2024/03/27 13:16:09;;;;;;;3.70;0.90;;;9.10;99.90;;;;;;6180805;28;20058;-89
2024/03/27 13:19:10;;;;;;;1.30;0.50;;;8.90;99.90;;;;;;6160909;28;20097;-92
2024/03/27 13:22:12;;;;;;;2.38;0.60;;;8.70;99.90;;;;;;6176748;28;20054;-91
2024/03/27 13:25:13;;;;;;;3.75;0.80;;;8.70;99.90;;;;;;6162263;28;20051;-91
2024/03/27 13:28:14;;;;;;;3.45;0.80;;;8.80;99.90;;;;;;6163298;28;20140;-83
2024/03/27 13:31:15;;;;;;;2.83;0.80;;;8.80;99.90;;;;;;6196313;28;20056;-88
2024/03/27 13:34:16;;;;;;;2.40;0.63;;;9.00;99.90;;;;;;6201026;28;20062;-92
2024/03/27 13:37:16;;;;;;;1.42;0.55;;;9.00;99.90;;;;;;6170255;28;20051;-94
2024/03/27 13:40:17;;;;;;;2.75;0.70;;;8.70;99.90;;;;;;6180244;28;20059;-91
2024/03/27 13:43:18;;;;;;;2.33;0.60;;;8.80;99.90;;;;;;6180346;28;20442;-93
2024/03/27 13:46:19;;;;;;;1.88;0.60;;;8.90;99.90;;;;;;6186661;28;20093;-89
2024/03/27 13:49:21;;;;;;;2.10;0.55;;;9.00;99.90;;;;;;6196126;28;20069;-90
2024/03/27 13:52:22;;;;;;;3.38;0.52;;;9.40;99.90;;;;;;6187701;28;20046;-86
2024/03/27 13:55:22;;;;;;;2.30;0.60;;;9.80;99.90;;;;;;6163530;28;20061;-87
2024/03/27 14:01:49;;;;;;;1.17;0.57;;;10.40;99.20;;;;;;6203302;28;20054;-86
2024/03/27 14:04:50;;;;;;;1.23;0.50;;;11.30;92.10;;;;;;6164557;28;20059;-88
2024/03/27 14:07:51;;;;;;;0.68;0.50;;;11.50;71.20;;;;;;6204037;28;20471;-85
2024/03/27 14:10:52;;;;;;;2.25;0.75;;;11.40;66.90;;;;;;6186997;28;20109;-89
2024/03/27 14:13:53;;;;;;;1.98;0.50;;;11.50;72.00;;;;;;6203264;28;20093;-88
2024/03/27 14:16:54;;;;;;;0.68;0.40;;;11.50;53.70;;;;;;6188149;28;20097;-86
2024/03/27 14:19:55;;;;;;;1.55;0.60;;;11.70;69.80;;;;;;6206332;28;20432;-85
2024/03/27 14:22:56;;;;;;;1.17;0.50;;;11.90;58.50;;;;;;6180406;28;20090;-84
2024/03/27 14:25:57;;;;;;;1.75;0.70;;;12.30;46.80;;;;;;6187658;28;20086;-87
2024/03/27 14:28:58;;;;;;;2.75;0.85;;;11.90;30.60;;;;;;6163695;28;20054;-90
2024/03/27 14:31:59;;;;;;;1.75;0.60;;;11.90;40.60;;;;;;6182526;28;20534;-91
2024/03/27 14:35:02;;;;;;;1.80;0.70;;;11.70;20.00;;;;;;6208014;28;20221;-90
2024/03/27 14:38:02;;;;;;;2.63;0.60;;;11.60;60.00;;;;;;6166018;28;20057;-87
2024/03/27 14:41:03;;;;;;;3.33;0.63;;;11.80;27.40;;;;;;6186147;28;20054;-87
2024/03/27 14:44:04;;;;;;;2.00;0.70;;;11.90;19.90;;;;;;6172604;28;20478;-89
2024/03/27 14:47:05;;;;;;;2.42;0.60;;;11.80;4.80;;;;;;6186775;28;20070;-87
2024/03/27 14:50:06;;;;;;;2.35;0.60;;;11.80;27.50;;;;;;6210580;28;20141;-88
2024/03/27 14:53:07;;;;;;;1.73;0.60;;;12.20;36.70;;;;;;6188383;28;20063;-88
2024/03/27 14:56:08;;;;;;;2.10;0.60;;;12.20;1.00;;;;;;6194525;28;20669;-88
2024/03/27 14:59:09;;;;;;;2.72;0.70;;;12.60;6.40;;;;;;6179026;28;20133;-87
2024/03/27 15:02:09;;;;;;;2.08;0.65;;;12.90;1.00;;;;;;6171066;28;20047;-86
2024/03/27 15:05:10;;;;;;;2.58;0.60;;;13.10;1.00;;;;;;6193475;28;20053;-87
2024/03/27 15:08:11;;;;;;;1.73;0.50;;;13.10;1.00;;;;;;6171251;28;20058;-87
2024/03/27 15:11:12;;;;;;;3.67;0.70;;;13.00;1.00;;;;;;6209732;28;20064;-84
2024/03/27 15:14:13;;;;;;;3.30;0.70;;;13.30;1.00;;;;;;6165916;28;20133;-85
2024/03/27 15:17:13;;;;;;;4.85;0.90;;;13.30;1.00;;;;;;6186471;28;20090;-87
2024/03/27 15:20:14;;;;;;;3.42;0.70;;;13.70;1.00;;;;;;6210293;28;20133;-86
2024/03/27 15:23:15;;;;;;;3.17;0.80;;;13.60;1.00;;;;;;6169945;28;20153;-87
2024/03/27 15:26:16;;;;;;;2.08;0.60;;;14.20;1.00;;;;;;6193598;28;20470;-88
2024/03/27 15:29:18;;;;;;;3.85;0.88;;;14.60;1.00;;;;;;6177169;28;20096;-87
2024/03/27 15:32:19;;;;;;;3.17;0.70;;;14.70;1.00;;;;;;6186865;28;20050;-86
2024/03/27 15:35:20;;;;;;;2.35;0.70;;;14.30;1.00;;;;;;6193847;28;20065;-88
2024/03/27 15:38:21;;;;;;;2.25;0.70;;;13.70;1.00;;;;;;6186870;28;20506;-83
2024/03/27 15:41:22;;;;;;;2.03;0.75;;;13.10;1.00;;;;;;6207208;28;20053;-81
2024/03/27 15:44:23;;;;;;;3.38;0.82;;;12.80;1.00;;;;;;6183755;28;20112;-80
2024/03/27 15:47:24;;;;;;;3.25;0.70;;;12.20;1.00;;;;;;6209432;28;20421;-81
2024/03/27 15:50:25;;;;;;;2.72;0.73;;;12.10;1.00;;;;;;6192055;28;20053;-82
2024/03/27 15:53:26;;;;;;;4.97;0.90;;;11.80;1.00;;;;;;6168162;28;20050;-82
2024/03/27 15:56:27;;;;;;;4.20;0.93;;;11.60;1.00;;;;;;6184409;28;20086;-83